Time;durP1;ratioP1;P1;durP2;ratioP2;P2;SDS_P1;SDS_P2;PMS_P1;PMS_P2;Temp;Humidity;BMP_temperature;BMP_pressure;BME280_temperature;BME280_humidity;BME280_pressure;Samples;Min_cycle;Max_cycle;Signal;HPM_P1;HPM_P2
2024/01/02 00:00:36;;;;;;;3.37;1.73;;;;;;;6.37;67.48;95716.91;5087039;28;20180;-69
2024/01/02 00:03:01;;;;;;;2.03;1.80;;;;;;;6.26;67.63;95703.44;5087001;28;20257;-68
2024/01/02 00:05:26;;;;;;;5.40;2.23;;;;;;;6.21;67.72;95706.22;5086867;28;20204;-71
2024/01/02 00:07:52;;;;;;;3.30;3.00;;;;;;;6.31;67.48;95702.38;5087211;28;20941;-68
2024/01/02 00:10:17;;;;;;;3.90;2.60;;;;;;;6.27;67.24;95697.34;5086657;28;20651;-70
2024/01/02 00:12:42;;;;;;;5.27;2.30;;;;;;;6.20;67.67;95693.28;5087121;28;20192;-68
2024/01/02 00:15:08;;;;;;;3.47;1.90;;;;;;;6.33;67.29;95684.06;5087291;28;20181;-69
2024/01/02 00:17:33;;;;;;;5.60;2.70;;;;;;;6.32;67.10;95687.59;5086497;28;20169;-70
2024/01/02 00:19:59;;;;;;;6.40;2.40;;;;;;;6.23;67.92;95687.94;5086752;28;20166;-69
2024/01/02 00:22:24;;;;;;;6.93;2.17;;;;;;;6.32;67.13;95683.22;5087564;28;20170;-69
2024/01/02 00:24:49;;;;;;;5.30;2.30;;;;;;;6.26;67.57;95682.59;5087027;28;20200;-70
2024/01/02 00:27:15;;;;;;;8.00;2.17;;;;;;;6.24;67.18;95666.19;5086395;28;20255;-68
2024/01/02 00:29:40;;;;;;;3.87;2.13;;;;;;;6.21;67.57;95661.09;5086378;28;20210;-69
2024/01/02 00:32:05;;;;;;;3.97;2.27;;;;;;;6.13;67.80;95659.63;5086661;28;20165;-69
2024/01/02 00:34:31;;;;;;;4.90;2.10;;;;;;;6.09;68.12;95662.41;5086715;28;20227;-69
2024/01/02 00:36:57;;;;;;;4.10;2.20;;;;;;;6.11;68.13;95652.78;5086092;28;20260;-68
2024/01/02 00:39:22;;;;;;;4.17;1.90;;;;;;;6.08;68.21;95642.50;5086368;28;20169;-68
2024/01/02 00:41:49;;;;;;;2.80;2.20;;;;;;;6.07;68.19;95633.84;5086709;28;20165;-69
2024/01/02 00:44:15;;;;;;;2.27;2.00;;;;;;;6.04;68.16;95625.28;5087463;28;20189;-70
2024/01/02 00:46:40;;;;;;;4.30;2.40;;;;;;;5.98;68.54;95623.75;5088779;28;20450;-67
2024/01/02 00:49:06;;;;;;;3.20;2.50;;;;;;;5.98;68.50;95628.97;5093598;28;20172;-70
2024/01/02 00:51:31;;;;;;;7.57;2.80;;;;;;;6.07;68.26;95625.16;5100931;28;20174;-70
2024/01/02 00:53:58;;;;;;;6.10;2.53;;;;;;;5.98;68.56;95620.31;5099362;28;20314;-69
2024/01/02 00:56:24;;;;;;;8.50;3.40;;;;;;;5.92;68.73;95616.97;5092716;28;20238;-69
2024/01/02 00:58:49;;;;;;;6.20;3.07;;;;;;;5.85;69.01;95612.06;5087901;28;20829;-70
2024/01/02 01:01:14;;;;;;;5.93;2.50;;;;;;;5.89;68.78;95614.50;5086920;28;20260;-69
2024/01/02 01:03:40;;;;;;;4.83;2.30;;;;;;;5.84;69.09;95613.00;5086944;28;20174;-70
2024/01/02 01:06:05;;;;;;;3.93;2.70;;;;;;;6.00;68.44;95614.13;5087248;28;20205;-69
2024/01/02 01:08:31;;;;;;;4.50;2.40;;;;;;;5.90;68.59;95610.13;5088493;28;20658;-70
2024/01/02 01:10:56;;;;;;;5.40;2.30;;;;;;;5.89;68.62;95603.25;5088868;28;20708;-68
2024/01/02 01:13:21;;;;;;;7.30;2.60;;;;;;;5.77;69.04;95594.16;5088824;28;20165;-68
2024/01/02 01:15:47;;;;;;;3.70;2.50;;;;;;;5.72;70.02;95594.31;5090340;28;20246;-71
2024/01/02 01:18:12;;;;;;;9.43;2.60;;;;;;;5.95;68.92;95605.63;5090594;28;20659;-69
2024/01/02 01:20:37;;;;;;;4.00;2.83;;;;;;;5.88;68.82;95604.13;5090066;28;20177;-69
2024/01/02 01:23:03;;;;;;;3.43;2.30;;;;;;;5.85;68.85;95607.72;5089978;28;20615;-69
2024/01/02 01:25:28;;;;;;;10.50;2.70;;;;;;;5.93;68.63;95602.22;5089951;28;20342;-69
2024/01/02 01:27:53;;;;;;;4.03;2.50;;;;;;;5.88;68.67;95599.81;5089549;28;20624;-70
2024/01/02 01:30:19;;;;;;;8.83;3.00;;;;;;;5.90;68.81;95597.97;5089706;28;20238;-68
2024/01/02 01:32:44;;;;;;;5.07;2.23;;;;;;;6.01;68.49;95605.41;5089811;28;20195;-68
2024/01/02 01:35:10;;;;;;;3.30;2.33;;;;;;;5.97;68.42;95588.19;5089871;28;20726;-70
2024/01/02 01:37:35;;;;;;;3.90;1.97;;;;;;;5.96;68.09;95586.50;5089665;28;20173;-69
2024/01/02 01:40:01;;;;;;;8.23;2.33;;;;;;;5.98;67.74;95578.66;5090200;28;20201;-68
2024/01/02 01:42:26;;;;;;;4.33;2.67;;;;;;;6.01;67.57;95575.91;5088602;28;20169;-70
2024/01/02 01:44:51;;;;;;;2.83;2.50;;;;;;;5.97;67.74;95582.97;5088288;28;20201;-69
2024/01/02 01:47:17;;;;;;;3.67;2.20;;;;;;;6.02;67.47;95582.81;5069942;28;20177;-69
2024/01/02 01:49:42;;;;;;;4.83;2.30;;;;;;;5.98;67.35;95568.22;5069140;28;20734;-69
2024/01/02 01:52:09;;;;;;;5.27;2.37;;;;;;;5.99;67.98;95568.16;5069047;28;20185;-70
2024/01/02 01:54:35;;;;;;;8.30;2.50;;;;;;;5.98;67.20;95566.47;5069152;28;20828;-70
2024/01/02 01:57:01;;;;;;;5.60;2.00;;;;;;;5.98;67.39;95563.88;5069476;28;20416;-68
2024/01/02 01:59:26;;;;;;;4.53;2.20;;;;;;;5.95;67.38;95563.97;5068986;28;20437;-70
2024/01/02 02:01:52;;;;;;;6.23;2.50;;;;;;;5.98;67.32;95560.41;5068982;28;20178;-68
2024/01/02 02:04:19;;;;;;;2.30;2.10;;;;;;;6.09;67.08;95556.44;5085481;28;20284;-70
2024/01/02 02:06:45;;;;;;;7.03;3.37;;;;;;;6.04;66.94;95553.19;5089137;28;20491;-70
2024/01/02 02:09:10;;;;;;;5.10;2.43;;;;;;;6.04;67.01;95555.78;5089147;28;20465;-70
2024/01/02 02:11:37;;;;;;;3.50;2.40;;;;;;;6.02;66.92;95548.94;5089064;28;20596;-69
2024/01/02 02:14:03;;;;;;;5.47;1.87;;;;;;;5.97;67.27;95556.94;5089095;28;20182;-70
2024/01/02 02:16:29;;;;;;;3.23;1.90;;;;;;;6.00;66.79;95555.97;5088981;28;20859;-69
2024/01/02 02:18:55;;;;;;;4.40;1.80;;;;;;;5.99;67.22;95549.91;5088537;28;20185;-70
2024/01/02 02:21:20;;;;;;;6.67;2.50;;;;;;;6.04;66.72;95547.13;5089328;28;20178;-69
2024/01/02 02:23:46;;;;;;;3.07;2.10;;;;;;;6.05;67.05;95549.69;5088820;28;20414;-69
2024/01/02 02:26:11;;;;;;;2.97;1.90;;;;;;;6.04;67.02;95553.19;5087682;28;20206;-69
2024/01/02 02:28:37;;;;;;;5.47;2.20;;;;;;;6.04;67.14;95542.78;5088762;28;20235;-70
2024/01/02 02:31:02;;;;;;;3.80;1.90;;;;;;;6.12;66.63;95537.28;5088963;28;20169;-70
2024/01/02 02:33:28;;;;;;;2.57;1.90;;;;;;;6.08;66.97;95533.09;5088963;28;20948;-70
2024/01/02 02:35:54;;;;;;;5.07;1.73;;;;;;;6.10;67.08;95531.28;5089239;28;20193;-70
2024/01/02 02:38:19;;;;;;;2.30;2.10;;;;;;;6.05;66.85;95531.47;5088597;28;21027;-69
2024/01/02 02:40:45;;;;;;;2.70;1.53;;;;;;;6.03;67.02;95522.84;5087815;28;20201;-69
2024/01/02 02:43:10;;;;;;;3.70;2.00;;;;;;;6.09;66.79;95516.53;5091025;28;20709;-68
2024/01/02 02:45:35;;;;;;;5.20;1.70;;;;;;;6.05;67.14;95513.22;5083017;28;20573;-70
2024/01/02 02:48:01;;;;;;;2.47;1.50;;;;;;;6.02;67.26;95505.50;5070213;28;20169;-69
2024/01/02 02:50:26;;;;;;;3.67;1.80;;;;;;;5.95;67.00;95509.28;5070532;28;20583;-69
2024/01/02 02:52:51;;;;;;;7.10;1.83;;;;;;;6.11;67.04;95510.34;5070537;28;20177;-69
2024/01/02 02:55:17;;;;;;;2.30;2.00;;;;;;;6.02;66.84;95502.06;5070730;28;20918;-70
2024/01/02 02:57:42;;;;;;;2.37;1.60;;;;;;;6.02;66.73;95499.47;5070255;28;20277;-70
2024/01/02 03:00:10;;;;;;;2.83;2.00;;;;;;;6.08;66.27;95496.63;5068486;28;20174;-70
2024/01/02 03:02:35;;;;;;;2.30;1.60;;;;;;;6.17;65.98;95482.38;5069670;28;20178;-71
2024/01/02 03:05:00;;;;;;;3.93;1.90;;;;;;;6.27;65.47;95478.47;5087754;28;21322;-70
2024/01/02 03:07:26;;;;;;;2.00;1.40;;;;;;;6.08;65.84;95460.16;5088732;28;20196;-69
2024/01/02 03:09:51;;;;;;;3.00;1.67;;;;;;;6.13;65.86;95453.00;5088040;28;20188;-70
2024/01/02 03:12:16;;;;;;;3.30;1.80;;;;;;;6.03;66.04;95447.31;5088021;28;20632;-69
2024/01/02 03:14:42;;;;;;;2.10;1.70;;;;;;;6.24;65.08;95439.53;5087765;28;20235;-69
2024/01/02 03:17:07;;;;;;;4.30;1.80;;;;;;;6.23;64.85;95437.81;5088005;28;20275;-69
2024/01/02 03:19:33;;;;;;;6.60;1.70;;;;;;;6.33;64.51;95429.56;5087732;28;20173;-69
2024/01/02 03:21:58;;;;;;;2.50;1.80;;;;;;;6.23;64.24;95432.63;5087650;28;20256;-69
2024/01/02 03:24:24;;;;;;;2.80;1.70;;;;;;;6.38;63.86;95431.97;5088095;28;20193;-69
2024/01/02 03:26:50;;;;;;;2.70;1.67;;;;;;;6.26;64.05;95435.09;5088257;28;20451;-69
2024/01/02 03:29:16;;;;;;;3.13;1.37;;;;;;;6.28;63.98;95426.31;5087436;28;20177;-69
2024/01/02 03:31:45;;;;;;;9.67;2.23;;;;;;;6.48;62.83;95408.97;5087582;28;20169;-69
2024/01/02 03:34:11;;;;;;;2.20;1.67;;;;;;;6.50;62.87;95404.53;5087545;28;20827;-69
2024/01/02 03:36:36;;;;;;;2.60;1.40;;;;;;;6.43;62.92;95397.91;5087538;28;20400;-69
2024/01/02 03:39:02;;;;;;;2.70;1.87;;;;;;;6.46;63.04;95397.75;5086947;28;20480;-69
2024/01/02 03:41:28;;;;;;;6.70;1.73;;;;;;;6.52;62.70;95392.25;5087143;28;20308;-69
2024/01/02 03:43:54;;;;;;;3.27;1.77;;;;;;;6.57;62.35;95391.16;5086971;28;20173;-68
2024/01/02 03:46:19;;;;;;;5.47;2.23;;;;;;;6.48;62.41;95368.09;5073869;28;20251;-69
2024/01/02 03:48:44;;;;;;;3.40;1.60;;;;;;;6.73;62.01;95367.00;5067698;28;20170;-69
2024/01/02 03:51:11;;;;;;;4.17;1.80;;;;;;;6.50;62.58;95362.84;5067125;28;20194;-69
2024/01/02 03:53:36;;;;;;;5.73;1.87;;;;;;;6.55;62.45;95361.72;5066956;28;20219;-70
2024/01/02 03:56:02;;;;;;;1.80;1.47;;;;;;;6.64;61.85;95362.19;5066606;28;21002;-70
2024/01/02 03:58:27;;;;;;;2.40;1.23;;;;;;;6.62;62.03;95357.06;5066555;28;20630;-69
2024/01/02 04:00:54;;;;;;;2.77;1.60;;;;;;;6.47;62.63;95352.53;5066514;28;20617;-70
2024/01/02 04:03:20;;;;;;;3.77;1.87;;;;;;;6.47;63.12;95342.97;5074003;28;20505;-70
2024/01/02 04:05:45;;;;;;;3.53;1.53;;;;;;;6.56;62.41;95339.09;5086488;28;20474;-69
2024/01/02 04:08:11;;;;;;;2.20;1.60;;;;;;;6.70;61.80;95328.88;5086644;28;20169;-70
2024/01/02 04:10:38;;;;;;;2.07;1.30;;;;;;;6.63;62.51;95332.69;5086926;28;20318;-69
2024/01/02 04:13:04;;;;;;;6.23;2.40;;;;;;;6.49;63.26;95335.91;5086725;28;20416;-68
2024/01/02 04:15:29;;;;;;;2.27;1.40;;;;;;;6.66;62.51;95332.56;5087177;28;20431;-69
2024/01/02 04:17:55;;;;;;;5.23;1.80;;;;;;;6.51;63.36;95326.25;5087053;28;20165;-69
2024/01/02 04:20:20;;;;;;;2.93;1.80;;;;;;;6.51;63.46;95313.22;5086706;28;20193;-68
2024/01/02 04:22:45;;;;;;;2.07;1.50;;;;;;;6.51;63.60;95307.19;5086672;28;20177;-70
2024/01/02 04:25:11;;;;;;;2.50;1.50;;;;;;;6.44;63.03;95301.41;5086643;28;20225;-70
2024/01/02 04:27:36;;;;;;;2.73;1.67;;;;;;;6.51;63.31;95297.59;5088525;28;20165;-69
2024/01/02 04:30:02;;;;;;;3.50;1.70;;;;;;;6.49;63.47;95294.22;5086300;28;20169;-69
2024/01/02 04:32:27;;;;;;;4.80;1.80;;;;;;;6.56;63.30;95298.22;5086481;28;20173;-70
2024/01/02 04:34:53;;;;;;;3.23;2.00;;;;;;;6.48;63.87;95289.09;5086821;28;20833;-70
2024/01/02 04:37:18;;;;;;;5.20;3.03;;;;;;;6.58;63.85;95283.38;5085901;28;20268;-70
2024/01/02 04:39:44;;;;;;;8.37;1.60;;;;;;;6.51;63.79;95275.91;5086078;28;20696;-68
2024/01/02 04:42:09;;;;;;;4.50;1.83;;;;;;;6.54;63.66;95271.41;5086443;28;20184;-69
2024/01/02 04:44:35;;;;;;;1.90;1.30;;;;;;;6.49;63.68;95264.69;5086381;28;20857;-69
2024/01/02 04:47:01;;;;;;;3.83;1.50;;;;;;;6.39;64.05;95269.50;5066721;28;20197;-69
2024/01/02 04:49:26;;;;;;;3.43;1.10;;;;;;;6.50;63.83;95259.44;5065210;28;20525;-69
2024/01/02 04:51:52;;;;;;;2.60;1.73;;;;;;;6.43;63.80;95245.00;5066383;28;20231;-69
2024/01/02 04:54:17;;;;;;;2.00;1.77;;;;;;;6.54;63.63;95250.56;5066431;28;20193;-68
2024/01/02 04:56:43;;;;;;;2.30;1.30;;;;;;;6.65;63.02;95247.44;5066112;28;20185;-69
2024/01/02 04:59:08;;;;;;;3.00;1.23;;;;;;;6.55;63.49;95243.59;5065780;28;20198;-68
2024/01/02 05:01:34;;;;;;;2.63;1.87;;;;;;;6.76;62.60;95232.13;5065909;28;20689;-69
2024/01/02 05:03:59;;;;;;;3.20;1.40;;;;;;;6.54;63.33;95232.31;5079690;28;21004;-69
2024/01/02 05:06:24;;;;;;;2.43;1.20;;;;;;;6.62;63.11;95226.72;5086815;28;20699;-69
2024/01/02 05:08:50;;;;;;;1.93;1.20;;;;;;;6.66;63.22;95224.81;5086948;28;20204;-69
2024/01/02 05:11:15;;;;;;;2.03;1.43;;;;;;;6.62;63.52;95220.69;5087158;28;20196;-69
2024/01/02 05:13:41;;;;;;;2.20;1.63;;;;;;;6.61;63.29;95217.22;5088094;28;20220;-69
2024/01/02 05:16:08;;;;;;;1.20;1.10;;;;;;;6.63;63.60;95215.38;5087346;28;20213;-69
2024/01/02 05:18:33;;;;;;;1.80;1.10;;;;;;;6.60;63.48;95210.31;5086007;28;20960;-70
2024/01/02 05:20:58;;;;;;;1.50;1.07;;;;;;;6.56;64.31;95201.78;5085919;28;20494;-69
2024/01/02 05:23:24;;;;;;;5.93;1.60;;;;;;;6.67;63.96;95198.69;5086918;28;20260;-70
2024/01/02 05:25:49;;;;;;;4.17;1.50;;;;;;;6.71;64.52;95200.22;5086051;28;20212;-67
2024/01/02 05:28:14;;;;;;;2.50;1.57;;;;;;;6.57;65.26;95200.03;5086563;28;20514;-68
2024/01/02 05:30:40;;;;;;;1.40;1.13;;;;;;;6.75;64.72;95185.28;5087883;28;20235;-68
2024/01/02 05:33:06;;;;;;;2.77;1.20;;;;;;;6.71;65.52;95183.75;5070608;28;20186;-68
2024/01/02 05:35:31;;;;;;;1.93;1.50;;;;;;;6.76;65.61;95184.38;5069273;28;20611;-67
2024/01/02 05:37:56;;;;;;;2.57;1.10;;;;;;;6.73;66.32;95176.69;5075203;28;20545;-70
2024/01/02 05:40:22;;;;;;;1.10;0.80;;;;;;;6.80;66.27;95162.41;5085739;28;20254;-69
2024/01/02 05:42:48;;;;;;;3.30;1.20;;;;;;;6.93;66.05;95160.06;5086066;28;20870;-68
2024/01/02 05:45:13;;;;;;;1.70;1.37;;;;;;;6.82;66.27;95150.16;5087553;28;20699;-68
2024/01/02 05:47:39;;;;;;;2.37;1.30;;;;;;;6.86;66.53;95156.06;5073555;28;20712;-68
2024/01/02 05:50:06;;;;;;;2.27;1.10;;;;;;;6.97;65.66;95154.63;5067727;28;20544;-68
2024/01/02 05:52:31;;;;;;;1.40;1.17;;;;;;;6.98;66.12;95156.31;5067321;28;20617;-68
2024/01/02 05:54:56;;;;;;;1.33;1.03;;;;;;;6.96;65.52;95155.53;5066196;28;20420;-69
2024/01/02 05:57:22;;;;;;;2.70;1.10;;;;;;;7.06;65.84;95147.25;5065318;28;20166;-68
2024/01/02 05:59:47;;;;;;;1.47;1.10;;;;;;;7.04;65.43;95151.69;5065991;28;20174;-70
2024/01/02 06:02:18;;;;;;;2.97;1.10;;;;;;;6.94;65.43;95133.91;5078172;28;20209;-70
2024/01/02 06:04:44;;;;;;;1.17;1.00;;;;;;;6.93;66.01;95132.22;5089033;28;20201;-68
2024/01/02 06:07:09;;;;;;;1.13;0.97;;;;;;;7.04;64.90;95134.31;5088549;28;20500;-67
2024/01/02 06:09:34;;;;;;;1.37;0.97;;;;;;;7.02;64.48;95128.31;5089249;28;20676;-68
2024/01/02 06:12:00;;;;;;;3.83;1.30;;;;;;;7.03;64.93;95121.31;5091567;28;20173;-67
2024/01/02 06:14:25;;;;;;;2.00;1.30;;;;;;;7.14;64.01;95124.25;5099155;28;20213;-68
2024/01/02 06:16:50;;;;;;;2.07;1.23;;;;;;;7.04;64.79;95121.25;5096085;28;20169;-69
2024/01/02 06:19:19;;;;;;;1.80;1.20;;;;;;;7.15;63.85;95125.91;5098037;28;20183;-70
2024/01/02 06:21:44;;;;;;;1.20;1.00;;;;;;;7.06;64.43;95115.94;5094632;28;20181;-68
2024/01/02 06:24:10;;;;;;;1.10;0.90;;;;;;;7.03;64.31;95111.72;5083224;28;20430;-69
2024/01/02 06:26:35;;;;;;;1.60;1.00;;;;;;;7.12;63.82;95115.66;5079019;28;20206;-69
2024/01/02 06:29:00;;;;;;;1.20;1.07;;;;;;;7.12;63.68;95103.44;5078184;28;20216;-69
2024/01/02 06:31:26;;;;;;;1.20;1.00;;;;;;;7.07;63.99;95102.84;5080951;28;20178;-68
2024/01/02 06:33:51;;;;;;;1.50;1.00;;;;;;;7.05;63.44;95093.41;5081369;28;20213;-68
2024/01/02 06:36:17;;;;;;;2.63;1.10;;;;;;;7.11;64.30;95098.28;5080615;28;20280;-68
2024/01/02 06:38:42;;;;;;;1.40;1.10;;;;;;;7.13;63.46;95081.63;5076917;28;20220;-69
2024/01/02 06:41:08;;;;;;;1.10;0.97;;;;;;;7.19;63.99;95096.16;5072976;28;20280;-69
2024/01/02 06:43:33;;;;;;;2.10;1.20;;;;;;;7.15;63.81;95105.03;5081506;28;20177;-68
2024/01/02 06:46:00;;;;;;;4.47;1.30;;;;;;;7.10;64.16;95107.06;5079340;28;20197;-68
2024/01/02 06:48:26;;;;;;;1.40;1.00;;;;;;;7.16;63.97;95104.16;5073281;28;20196;-68
2024/01/02 06:50:51;;;;;;;1.97;1.20;;;;;;;7.25;63.41;95105.41;5081860;28;20534;-69
2024/01/02 06:53:16;;;;;;;2.23;1.10;;;;;;;7.18;63.36;95103.13;5077125;28;20224;-68
2024/01/02 06:55:42;;;;;;;2.63;1.40;;;;;;;7.21;63.33;95084.72;5066768;28;20198;-68
2024/01/02 06:58:07;;;;;;;4.30;1.10;;;;;;;7.26;64.03;95084.47;5076421;28;20185;-69
2024/01/02 07:00:33;;;;;;;2.50;1.30;;;;;;;7.13;63.71;95078.19;5069223;28;20209;-68
2024/01/02 07:03:02;;;;;;;2.80;1.20;;;;;;;7.16;63.64;95085.88;5084299;28;20190;-68
2024/01/02 07:05:27;;;;;;;1.40;1.07;;;;;;;7.16;64.04;95086.72;5075549;28;20467;-68
2024/01/02 07:07:52;;;;;;;2.90;1.30;;;;;;;7.28;63.77;95087.00;5074738;28;20442;-69
2024/01/02 07:10:18;;;;;;;1.20;0.90;;;;;;;7.24;63.84;95091.53;5075970;28;20181;-69
2024/01/02 07:12:44;;;;;;;1.40;1.00;;;;;;;7.25;63.59;95077.56;5074413;28;20319;-69
2024/01/02 07:15:09;;;;;;;1.40;0.97;;;;;;;7.19;64.69;95076.13;5077212;28;21945;-67
2024/01/02 07:17:35;;;;;;;5.27;1.30;;;;;;;7.24;64.43;95070.66;5071073;28;20178;-67
2024/01/02 07:20:00;;;;;;;1.93;1.20;;;;;;;7.26;64.37;95060.16;5078974;28;20340;-67
2024/01/02 07:22:29;;;;;;;2.17;1.80;;;;;;;7.25;64.22;95080.16;5086255;28;20264;-68
2024/01/02 07:24:55;;;;;;;1.80;1.40;;;;;;;7.27;64.42;95088.75;5085723;28;20196;-69
2024/01/02 07:27:21;;;;;;;6.50;2.00;;;;;;;7.31;64.79;95089.44;5086110;28;20415;-68
2024/01/02 07:29:47;;;;;;;1.70;1.00;;;;;;;7.28;64.61;95090.47;5086247;28;20248;-68
2024/01/02 07:32:13;;;;;;;1.10;0.90;;;;;;;7.32;64.67;95085.91;5086752;28;21011;-68
2024/01/02 07:34:38;;;;;;;3.50;1.50;;;;;;;7.28;64.78;95082.63;5086980;28;20212;-69
2024/01/02 07:37:03;;;;;;;2.20;1.17;;;;;;;7.29;65.05;95078.25;5087575;28;20637;-68
2024/01/02 07:39:29;;;;;;;3.03;1.67;;;;;;;7.34;65.47;95068.41;5088556;28;20177;-67
2024/01/02 07:41:54;;;;;;;1.33;1.10;;;;;;;7.28;64.95;95059.16;5089055;28;20204;-68
2024/01/02 07:44:21;;;;;;;1.20;1.00;;;;;;;7.37;65.00;95061.28;5088665;28;20189;-68
2024/01/02 07:46:47;;;;;;;1.77;1.33;;;;;;;7.46;64.60;95066.91;5088679;28;20205;-68
2024/01/02 07:49:12;;;;;;;2.23;1.10;;;;;;;7.31;65.51;95074.63;5088364;28;20460;-69
2024/01/02 07:51:37;;;;;;;1.73;1.37;;;;;;;7.40;65.54;95075.94;5088246;28;20169;-68
2024/01/02 07:54:03;;;;;;;6.97;1.40;;;;;;;7.43;65.31;95070.53;5088158;28;20174;-68
2024/01/02 07:56:30;;;;;;;1.70;1.27;;;;;;;7.39;65.71;95075.09;5088182;28;20177;-68
2024/01/02 07:58:56;;;;;;;1.87;1.10;;;;;;;7.37;66.02;95068.25;5087630;28;20212;-69
2024/01/02 08:01:22;;;;;;;2.63;1.00;;;;;;;7.42;66.54;95064.47;5079713;28;20499;-68
2024/01/02 08:03:47;;;;;;;2.23;1.00;;;;;;;7.42;66.35;95074.91;5066584;28;20182;-68
2024/01/02 08:06:13;;;;;;;1.80;1.20;;;;;;;7.43;66.83;95063.53;5066543;28;20525;-67
2024/01/02 08:08:38;;;;;;;3.73;1.00;;;;;;;7.51;66.23;95070.13;5065854;28;20186;-68
2024/01/02 08:11:05;;;;;;;6.27;1.37;;;;;;;7.43;67.42;95067.94;5066157;28;20927;-68
2024/01/02 08:13:33;;;;;;;43.83;7.03;;;;;;;7.36;67.62;95066.56;5066529;28;20548;-68
2024/01/02 08:15:59;;;;;;;1.43;1.30;;;;;;;7.51;67.95;95065.78;5066479;28;20452;-67
2024/01/02 08:18:24;;;;;;;1.60;1.10;;;;;;;7.46;67.81;95059.94;5067643;28;20174;-68
2024/01/02 08:20:50;;;;;;;1.50;0.90;;;;;;;7.46;68.25;95061.69;5066306;28;20182;-68
2024/01/02 08:23:15;;;;;;;6.00;1.50;;;;;;;7.48;68.55;95067.69;5066023;28;20239;-68
2024/01/02 08:25:41;;;;;;;1.30;0.90;;;;;;;7.41;69.24;95062.78;5065764;28;20213;-68
2024/01/02 08:28:07;;;;;;;8.50;1.30;;;;;;;7.42;69.14;95059.25;5066266;28;20178;-68
2024/01/02 08:30:32;;;;;;;1.10;0.90;;;;;;;7.47;69.44;95060.78;5066014;28;20213;-68
2024/01/02 08:32:58;;;;;;;6.57;1.27;;;;;;;7.53;69.11;95073.50;5064926;28;20174;-67
2024/01/02 08:35:24;;;;;;;2.60;1.40;;;;;;;7.55;69.42;95063.81;5066048;28;20615;-67
2024/01/02 08:37:49;;;;;;;2.67;1.20;;;;;;;7.43;69.82;95062.72;5065705;28;20428;-67
2024/01/02 08:40:15;;;;;;;5.03;1.03;;;;;;;7.47;70.47;95059.00;5065828;28;20205;-69
2024/01/02 08:42:41;;;;;;;1.33;1.23;;;;;;;7.39;71.25;95061.16;5065784;28;21048;-69
2024/01/02 08:45:09;;;;;;;1.50;1.10;;;;;;;7.44;71.04;95051.34;5068753;28;20218;-68
2024/01/02 08:47:36;;;;;;;1.00;0.80;;;;;;;7.54;70.79;95062.16;5067138;28;20435;-69
2024/01/02 08:50:02;;;;;;;1.70;1.30;;;;;;;7.49;70.94;95048.47;5066328;28;20782;-67
2024/01/02 08:52:27;;;;;;;1.30;1.00;;;;;;;7.47;70.80;95059.00;5065945;28;20508;-68
2024/01/02 08:54:52;;;;;;;1.40;0.90;;;;;;;7.47;71.37;95060.78;5066423;28;20270;-68
2024/01/02 08:57:18;;;;;;;7.03;1.60;;;;;;;7.41;71.27;95062.78;5065918;28;20193;-67
2024/01/02 08:59:43;;;;;;;2.03;0.93;;;;;;;7.56;71.78;95079.41;5065739;28;20973;-68
2024/01/02 09:02:09;;;;;;;0.90;0.80;;;;;;;7.55;70.86;95066.44;5065688;28;20264;-67
2024/01/02 09:04:36;;;;;;;1.80;0.83;;;;;;;7.54;71.76;95060.38;5084901;28;20198;-68
2024/01/02 09:07:01;;;;;;;1.87;1.00;;;;;;;7.61;70.99;95034.78;5085993;28;20455;-68
2024/01/02 09:09:27;;;;;;;1.30;0.80;;;;;;;7.64;71.00;95050.28;5085804;28;21268;-68
2024/01/02 09:11:52;;;;;;;1.40;0.90;;;;;;;7.56;71.02;95036.78;5085879;28;20184;-68
2024/01/02 09:14:17;;;;;;;1.63;1.10;;;;;;;7.64;71.73;95032.00;5086181;28;20193;-69
2024/01/02 09:16:45;;;;;;;1.70;0.80;;;;;;;7.65;71.08;95028.44;5084824;28;20180;-69
2024/01/02 09:19:10;;;;;;;2.47;1.00;;;;;;;7.68;71.04;95032.66;5085531;28;20369;-69
2024/01/02 09:21:36;;;;;;;5.07;1.93;;;;;;;7.60;71.83;95033.91;5085719;28;20417;-69
2024/01/02 09:24:01;;;;;;;0.90;0.70;;;;;;;7.63;71.41;95033.78;5085844;28;20166;-69
2024/01/02 09:26:29;;;;;;;1.97;0.90;;;;;;;7.71;71.46;95029.91;5085849;28;20200;-68
2024/01/02 09:28:54;;;;;;;3.73;1.23;;;;;;;7.68;71.11;95040.50;5085985;28;20195;-67
2024/01/02 09:31:24;;;;;;;3.87;1.27;;;;;;;7.80;71.27;95045.06;5086416;28;20412;-68
2024/01/02 09:33:49;;;;;;;3.50;1.10;;;;;;;7.78;70.77;95031.25;5087957;28;20260;-66
2024/01/02 09:36:15;;;;;;;1.57;1.00;;;;;;;7.73;71.21;95039.34;5090198;28;20547;-69
2024/01/02 09:38:40;;;;;;;2.40;0.90;;;;;;;7.85;70.78;95056.09;5091248;28;20681;-69
2024/01/02 09:41:30;;;;;;;1.00;0.70;;;;;;;7.83;69.70;95050.13;5091257;28;20185;-70
2024/01/02 09:44:10;;;;;;;1.20;0.80;;;;;;;7.85;70.50;95046.50;5091319;28;20279;-69
2024/01/02 09:46:51;;;;;;;3.37;1.00;;;;;;;7.96;69.33;95050.28;5090548;28;20487;-68
2024/01/02 09:49:27;;;;;;;3.50;1.20;;;;;;;8.02;69.49;95050.78;5090266;28;20538;-69
2024/01/02 09:52:06;;;;;;;0.90;0.70;;;;;;;7.98;69.48;95058.88;5089970;28;20402;-69
2024/01/02 09:54:41;;;;;;;1.43;0.80;;;;;;;7.99;69.39;95056.19;5091409;28;20431;-69
2024/01/02 09:57:13;;;;;;;1.50;1.00;;;;;;;7.99;69.98;95052.75;5089124;28;20411;-68
2024/01/02 10:00:20;;;;;;;2.00;0.90;;;;;;;8.12;69.21;95039.81;5089128;28;20408;-68
2024/01/02 10:03:19;;;;;;;1.00;0.80;;;;;;;8.05;68.75;95041.94;5076666;28;20415;-67
2024/01/02 10:05:52;;;;;;;5.03;1.03;;;;;;;8.01;69.19;95032.59;5089587;28;20460;-68
2024/01/02 10:08:33;;;;;;;2.77;0.80;;;;;;;8.00;68.85;95057.03;5091233;28;20418;-68
2024/01/02 10:11:32;;;;;;;1.67;0.90;;;;;;;8.04;68.08;95043.72;5090446;28;20514;-67
2024/01/02 10:14:27;;;;;;;2.10;1.20;;;;;;;8.10;68.65;95033.84;5089969;28;20411;-68
2024/01/02 10:17:10;;;;;;;2.23;0.90;;;;;;;8.06;69.17;95035.78;5089683;28;20941;-69
2024/01/02 10:20:03;;;;;;;2.33;1.10;;;;;;;8.11;68.50;95032.94;5089593;28;20453;-68
2024/01/02 10:23:03;;;;;;;3.53;1.00;;;;;;;8.17;69.51;95032.56;5088710;28;20759;-68
2024/01/02 10:25:29;;;;;;;1.80;0.90;;;;;;;8.31;67.76;95037.00;5086077;28;20511;-69
2024/01/02 10:28:18;;;;;;;1.33;1.00;;;;;;;8.25;67.78;95031.22;5089513;28;20408;-67
2024/01/02 10:31:07;;;;;;;1.27;1.13;;;;;;;8.32;68.56;95025.66;5089862;28;20442;-67
2024/01/02 10:33:43;;;;;;;2.23;1.23;;;;;;;8.31;67.77;95032.63;5088930;28;20437;-68
2024/01/02 10:36:15;;;;;;;2.70;1.53;;;;;;;8.34;68.29;95023.75;5087858;28;20461;-66
2024/01/02 10:38:56;;;;;;;2.30;0.90;;;;;;;8.28;67.99;95028.41;5088956;28;20424;-67
2024/01/02 10:41:39;;;;;;;1.97;0.87;;;;;;;8.30;67.96;95028.34;5088440;28;20465;-66
2024/01/02 10:44:34;;;;;;;2.47;1.20;;;;;;;8.34;68.52;95023.75;5089252;28;20412;-66
2024/01/02 10:47:05;;;;;;;8.47;1.37;;;;;;;8.33;68.21;95022.94;5068613;28;20468;-68
2024/01/02 10:49:34;;;;;;;2.60;1.10;;;;;;;8.34;69.34;95013.31;5069750;28;20408;-67
2024/01/02 10:52:23;;;;;;;1.10;0.90;;;;;;;8.46;67.91;95023.94;5069714;28;20491;-67
2024/01/02 10:54:58;;;;;;;7.07;1.37;;;;;;;8.49;68.03;95017.69;5068763;28;20631;-67
2024/01/02 10:57:37;;;;;;;1.10;0.77;;;;;;;8.46;68.59;95020.50;5068198;28;20400;-67
2024/01/02 11:00:09;;;;;;;1.20;0.80;;;;;;;8.53;68.07;95014.00;5068171;28;20408;-67
2024/01/02 11:03:10;;;;;;;1.00;0.80;;;;;;;8.75;68.03;95023.19;5069991;28;20400;-68
2024/01/02 11:05:44;;;;;;;1.20;1.00;;;;;;;8.65;67.17;95002.81;5088455;28;20871;-67
2024/01/02 11:08:32;;;;;;;3.60;1.10;;;;;;;8.57;68.00;94991.09;5079806;28;20563;-67
2024/01/02 11:11:03;;;;;;;1.30;0.87;;;;;;;8.64;67.81;94989.81;5070293;28;20435;-68
2024/01/02 11:13:30;;;;;;;1.50;0.90;;;;;;;8.57;67.91;94978.03;5084130;28;20407;-68
2024/01/02 11:15:59;;;;;;;1.67;0.93;;;;;;;8.57;68.34;94989.31;5080760;28;20546;-67
2024/01/02 11:18:29;;;;;;;1.60;0.97;;;;;;;8.65;67.09;94971.44;5078962;28;20435;-68
2024/01/02 11:21:21;;;;;;;1.20;0.90;;;;;;;8.59;68.03;94982.22;5079333;28;20459;-66
2024/01/02 11:23:52;;;;;;;1.40;1.00;;;;;;;8.65;67.20;94960.97;5089077;28;20430;-67
2024/01/02 11:26:24;;;;;;;2.13;0.80;;;;;;;8.74;66.96;94961.34;5088421;28;21232;-68
2024/01/02 11:28:53;;;;;;;1.67;1.10;;;;;;;8.72;67.71;94955.34;5080118;28;20433;-67
2024/01/02 11:31:20;;;;;;;3.47;1.10;;;;;;;8.78;67.04;94952.38;5082199;28;20484;-67
2024/01/02 11:34:04;;;;;;;1.00;0.80;;;;;;;8.76;66.90;94965.53;5092337;28;20412;-68
2024/01/02 11:36:40;;;;;;;1.97;1.23;;;;;;;8.82;67.05;94943.41;5101124;28;20412;-68
2024/01/02 11:39:35;;;;;;;1.53;1.30;;;;;;;8.86;67.71;94952.78;5103087;28;20451;-68
2024/01/02 11:42:22;;;;;;;2.80;1.10;;;;;;;9.04;67.01;94951.63;5038111;28;21143;-67
2024/01/02 11:45:11;;;;;;;1.77;1.13;;;;;;;8.96;66.53;94932.97;5086550;28;20416;-68